createdAt,value
2023-03-26T00:01:47.203Z,39.21
2023-03-26T00:04:19.728Z,39.19
2023-03-26T00:06:50.390Z,39.03
2023-03-26T00:09:20.550Z,39.08
2023-03-26T00:11:48.930Z,39.17
2023-03-26T00:14:17.929Z,39.01
2023-03-26T00:16:47.650Z,38.95
2023-03-26T00:19:16.785Z,38.95
2023-03-26T00:21:45.217Z,39.00
2023-03-26T00:24:16.346Z,38.88
2023-03-26T00:26:53.359Z,38.89
2023-03-26T00:29:23.017Z,38.74
2023-03-26T00:31:51.950Z,38.84
2023-03-26T00:34:20.810Z,38.76
2023-03-26T00:36:54.951Z,38.67
2023-03-26T00:39:24.509Z,38.62
2023-03-26T00:41:55.243Z,38.51
2023-03-26T00:44:23.956Z,38.56
2023-03-26T00:46:52.698Z,38.71
2023-03-26T00:49:21.168Z,38.52
2023-03-26T00:51:49.611Z,38.50
2023-03-26T00:54:18.049Z,38.39
2023-03-26T00:56:46.794Z,38.48
2023-03-26T00:59:17.090Z,38.33
2023-03-26T01:01:45.609Z,38.25
2023-03-26T01:04:30.818Z,38.16
2023-03-26T01:07:05.092Z,38.16
2023-03-26T01:09:38.618Z,38.05
2023-03-26T01:12:09.866Z,38.15
2023-03-26T01:14:40.960Z,38.10
2023-03-26T01:17:12.513Z,37.96
2023-03-26T01:19:49.640Z,37.96
2023-03-26T01:22:20.387Z,37.91
2023-03-26T01:24:54.183Z,37.96
2023-03-26T01:27:39.026Z,37.97
2023-03-26T01:30:18.173Z,38.04
2023-03-26T01:33:03.416Z,38.01
2023-03-26T01:35:42.668Z,38.01
2023-03-26T01:38:24.564Z,38.02
2023-03-26T01:41:01.839Z,37.94
2023-03-26T01:43:37.616Z,37.97
2023-03-26T01:46:10.424Z,37.95
2023-03-26T01:48:41.694Z,38.05
2023-03-26T01:51:12.943Z,37.98
2023-03-26T01:53:46.131Z,37.83
2023-03-26T01:56:24.356Z,37.78
2023-03-26T01:59:16.392Z,37.74
2023-03-26T02:01:55.895Z,37.85
2023-03-26T02:04:33.615Z,37.79
2023-03-26T02:07:08.021Z,37.87
2023-03-26T02:09:45.949Z,37.57
2023-03-26T02:12:17.367Z,37.65
2023-03-26T02:14:46.932Z,37.55
2023-03-26T02:17:16.824Z,37.60
2023-03-26T02:19:45.182Z,37.59
2023-03-26T02:22:15.788Z,37.65
2023-03-26T02:24:44.783Z,37.92
2023-03-26T02:27:13.516Z,37.82
2023-03-26T02:29:43.518Z,37.91
2023-03-26T02:32:13.456Z,38.09
2023-03-26T02:34:42.355Z,38.21
2023-03-26T02:37:11.353Z,38.12
2023-03-26T02:39:39.757Z,38.24
2023-03-26T02:42:08.196Z,38.44
2023-03-26T02:44:38.800Z,38.36
2023-03-26T02:47:08.654Z,38.53
2023-03-26T02:49:37.027Z,38.67
2023-03-26T02:52:06.734Z,38.64
2023-03-26T02:54:35.491Z,38.87
2023-03-26T02:57:03.955Z,39.05
2023-03-26T02:59:32.389Z,38.93
2023-03-26T03:02:01.059Z,38.92
2023-03-26T03:04:30.914Z,38.97
2023-03-26T03:07:00.006Z,38.96
2023-03-26T03:09:28.396Z,39.08
2023-03-26T03:11:56.830Z,39.29
2023-03-26T03:14:25.222Z,39.18
2023-03-26T03:16:54.144Z,39.08
2023-03-26T03:19:22.606Z,39.22
2023-03-26T03:21:52.383Z,39.45
2023-03-26T03:24:20.789Z,39.46
2023-03-26T03:26:50.360Z,39.39
2023-03-26T03:29:18.789Z,39.55
2023-03-26T03:31:47.522Z,39.63
2023-03-26T03:34:15.973Z,39.61
2023-03-26T03:36:48.464Z,39.55
2023-03-26T03:39:18.270Z,39.63
2023-03-26T03:41:46.746Z,39.55
2023-03-26T03:44:15.168Z,39.61
2023-03-26T03:46:43.622Z,39.57
2023-03-26T03:49:12.020Z,39.66
2023-03-26T03:51:41.094Z,39.54
2023-03-26T03:54:10.021Z,39.40
2023-03-26T03:56:40.172Z,39.61
2023-03-26T03:59:08.912Z,39.57
2023-03-26T04:01:37.326Z,39.52
2023-03-26T04:04:06.022Z,39.30
2023-03-26T04:06:34.540Z,39.41
2023-03-26T04:09:02.980Z,39.27
2023-03-26T04:11:31.650Z,39.13
2023-03-26T04:14:01.398Z,39.07
2023-03-26T04:16:30.010Z,38.96
2023-03-26T04:18:58.452Z,38.92
2023-03-26T04:21:30.301Z,38.84
2023-03-26T04:23:58.740Z,39.00
2023-03-26T04:26:30.844Z,38.93
2023-03-26T04:29:03.096Z,38.87
2023-03-26T04:31:32.127Z,38.98
2023-03-26T04:34:08.149Z,38.89
2023-03-26T04:36:36.604Z,38.94
2023-03-26T04:39:06.773Z,38.87
2023-03-26T04:41:35.193Z,38.96
2023-03-26T04:44:05.146Z,38.93
2023-03-26T04:46:35.131Z,38.86
2023-03-26T04:49:04.053Z,38.99
2023-03-26T04:51:39.521Z,38.93
2023-03-26T04:54:08.751Z,38.97
2023-03-26T04:56:46.692Z,38.94
2023-03-26T04:59:26.656Z,38.83
2023-03-26T05:01:55.380Z,38.88
2023-03-26T05:04:23.807Z,38.74
2023-03-26T05:06:52.355Z,38.48
2023-03-26T05:09:21.446Z,38.73
2023-03-26T05:11:50.796Z,38.66
2023-03-26T05:14:21.456Z,38.69
2023-03-26T05:16:53.317Z,38.75
2023-03-26T05:19:22.437Z,38.77
2023-03-26T05:21:50.895Z,38.74
2023-03-26T05:24:19.931Z,38.66
2023-03-26T05:26:48.321Z,38.80
2023-03-26T05:29:22.153Z,38.74
2023-03-26T05:31:51.088Z,38.71
2023-03-26T05:34:20.992Z,38.70
2023-03-26T05:36:49.718Z,38.81
2023-03-26T05:39:18.139Z,38.66
2023-03-26T05:41:47.094Z,38.75
2023-03-26T05:44:15.509Z,38.80
2023-03-26T05:46:45.331Z,38.72
2023-03-26T05:49:13.748Z,38.67
2023-03-26T05:51:42.181Z,38.72
2023-03-26T05:54:10.606Z,38.77
2023-03-26T05:56:39.019Z,38.81
2023-03-26T05:59:08.048Z,38.71
2023-03-26T06:01:36.471Z,38.82
2023-03-26T06:04:06.688Z,38.67
2023-03-26T06:06:35.164Z,38.73
2023-03-26T06:09:04.017Z,38.65
2023-03-26T06:11:32.922Z,38.76
2023-03-26T06:14:02.134Z,38.62
2023-03-26T06:16:30.593Z,38.66
2023-03-26T06:18:59.378Z,38.78
2023-03-26T06:21:29.926Z,38.81
2023-03-26T06:23:58.462Z,38.77
2023-03-26T06:26:26.966Z,38.80
2023-03-26T06:28:55.414Z,38.69
2023-03-26T06:31:23.843Z,38.80
2023-03-26T06:33:53.297Z,38.81
2023-03-26T06:36:21.817Z,38.84
2023-03-26T06:38:51.637Z,38.84
2023-03-26T06:41:20.048Z,38.73
2023-03-26T06:43:48.535Z,38.70
2023-03-26T06:46:17.335Z,38.50
2023-03-26T06:48:45.780Z,38.49
2023-03-26T06:51:14.240Z,38.45
2023-03-26T06:53:42.658Z,38.48
2023-03-26T06:56:12.745Z,38.34
2023-03-26T06:58:41.352Z,38.32
2023-03-26T07:01:09.853Z,38.22
2023-03-26T07:03:38.392Z,37.91
2023-03-26T07:06:07.744Z,37.59
2023-03-26T07:08:36.202Z,37.63
2023-03-26T07:11:04.835Z,37.32
2023-03-26T07:13:34.689Z,37.29
2023-03-26T07:16:03.321Z,37.16
2023-03-26T07:18:31.858Z,37.01
2023-03-26T07:21:01.398Z,36.72
2023-03-26T07:23:30.640Z,36.55
2023-03-26T07:26:00.263Z,36.52
2023-03-26T07:28:40.293Z,36.36
2023-03-26T07:31:22.204Z,35.93
2023-03-26T07:34:02.436Z,35.92
2023-03-26T07:36:37.191Z,35.10
2023-03-26T07:39:19.991Z,34.97
2023-03-26T07:41:57.114Z,35.02
2023-03-26T07:44:49.111Z,35.17
2023-03-26T07:47:26.217Z,34.57
2023-03-26T07:49:58.319Z,34.60
2023-03-26T07:52:28.380Z,34.59
2023-03-26T07:54:57.835Z,34.35
2023-03-26T07:57:46.684Z,34.28
2023-03-26T08:00:22.402Z,33.96
2023-03-26T08:03:32.214Z,33.54
2023-03-26T08:06:11.442Z,33.29
2023-03-26T08:08:49.299Z,33.49
2023-03-26T08:11:35.343Z,33.45
2023-03-26T08:14:27.062Z,33.45
2023-03-26T08:17:03.495Z,33.18
2023-03-26T08:20:02.252Z,32.78
2023-03-26T08:22:37.414Z,32.82
2023-03-26T08:25:27.648Z,32.08
2023-03-26T08:28:14.461Z,32.34
2023-03-26T08:30:43.757Z,32.16
2023-03-26T08:33:19.272Z,32.02
2023-03-26T08:35:48.392Z,31.93
2023-03-26T08:38:19.547Z,31.38
2023-03-26T08:41:42.554Z,31.81
2023-03-26T08:45:01.489Z,31.73
2023-03-26T08:48:18.820Z,31.41
2023-03-26T08:51:52.576Z,30.52
2023-03-26T08:55:06.350Z,30.87
2023-03-26T08:58:11.481Z,29.94
2023-03-26T09:00:59.732Z,29.00
2023-03-26T09:04:00.675Z,29.92
2023-03-26T09:07:16.630Z,29.69
2023-03-26T09:10:42.131Z,29.91
2023-03-26T09:14:18.548Z,29.72
2023-03-26T09:17:42.434Z,29.91
2023-03-26T09:21:01.796Z,30.21
2023-03-26T09:24:14.674Z,29.76
2023-03-26T09:26:51.827Z,29.50
2023-03-26T09:30:14.009Z,29.57
2023-03-26T09:33:16.556Z,29.36
2023-03-26T09:35:55.727Z,28.04
2023-03-26T09:38:47.214Z,27.66
2023-03-26T09:41:28.319Z,26.49
2023-03-26T09:44:49.655Z,27.10
2023-03-26T09:48:27.188Z,27.14
2023-03-26T09:51:20.935Z,26.04
2023-03-26T09:54:14.373Z,26.60
2023-03-26T09:56:57.825Z,26.55
2023-03-26T10:00:10.072Z,26.21
2023-03-26T10:03:22.526Z,26.14
2023-03-26T10:06:13.870Z,26.06
2023-03-26T10:09:03.871Z,26.21
2023-03-26T10:12:02.406Z,26.25
2023-03-26T10:14:42.043Z,26.28
2023-03-26T10:17:34.526Z,26.10
2023-03-26T10:20:44.303Z,25.94
2023-03-26T10:23:34.653Z,25.35
2023-03-26T10:26:39.805Z,24.96
2023-03-26T10:29:31.098Z,25.21
2023-03-26T10:32:17.362Z,24.98
2023-03-26T10:35:00.038Z,24.98
2023-03-26T10:37:47.808Z,24.87
2023-03-26T10:40:28.434Z,24.65
2023-03-26T10:43:37.120Z,24.43
2023-03-26T10:46:48.379Z,24.55
2023-03-26T10:49:55.113Z,24.43
2023-03-26T10:52:26.247Z,24.27
2023-03-26T10:54:59.168Z,24.08
2023-03-26T10:57:39.645Z,23.91
2023-03-26T11:00:26.028Z,23.66
2023-03-26T11:03:27.394Z,23.42
2023-03-26T11:06:09.417Z,23.43
2023-03-26T11:08:48.044Z,23.03
2023-03-26T11:11:26.555Z,22.90
2023-03-26T11:14:04.966Z,22.43
2023-03-26T11:16:50.423Z,22.43
2023-03-26T11:19:26.093Z,21.68
2023-03-26T11:22:03.266Z,21.68
2023-03-26T11:25:10.747Z,21.53
2023-03-26T11:27:55.566Z,21.29
2023-03-26T11:30:37.543Z,21.43
2023-03-26T11:33:11.913Z,20.64
2023-03-26T11:35:46.949Z,20.19
2023-03-26T11:38:21.229Z,19.69
2023-03-26T11:40:54.262Z,19.66
2023-03-26T11:43:36.108Z,19.70
2023-03-26T11:46:11.370Z,19.25
2023-03-26T11:48:46.742Z,19.02
2023-03-26T11:51:24.207Z,19.10
2023-03-26T11:53:54.688Z,18.84
2023-03-26T11:56:32.113Z,18.53
2023-03-26T11:59:05.918Z,18.43
2023-03-26T12:01:50.456Z,18.29
2023-03-26T12:04:29.251Z,18.70
2023-03-26T12:07:16.875Z,18.46
2023-03-26T12:09:53.046Z,18.98
2023-03-26T12:12:23.042Z,18.49
2023-03-26T12:14:51.841Z,19.00
2023-03-26T12:17:32.385Z,18.69
2023-03-26T12:20:06.766Z,18.68
2023-03-26T12:22:40.242Z,18.91
2023-03-26T12:25:19.371Z,18.83
2023-03-26T12:27:51.105Z,19.23
2023-03-26T12:30:26.423Z,18.85
2023-03-26T12:33:00.955Z,18.96
2023-03-26T12:35:34.380Z,19.00
2023-03-26T12:38:27.435Z,18.83
2023-03-26T12:41:09.004Z,18.94
2023-03-26T12:44:50.058Z,19.15
2023-03-26T12:47:58.245Z,18.87
2023-03-26T12:50:15.779Z,18.91
2023-03-26T12:53:09.684Z,18.76
2023-03-26T12:55:51.221Z,18.96
2023-03-26T12:58:51.701Z,18.83
2023-03-26T13:01:35.525Z,18.68
2023-03-26T13:04:28.968Z,18.40
2023-03-26T13:07:02.454Z,17.94
2023-03-26T13:10:04.136Z,17.89
2023-03-26T13:12:41.052Z,17.96
2023-03-26T13:15:24.162Z,17.61
2023-03-26T13:18:11.944Z,17.30
2023-03-26T13:20:56.110Z,17.29
2023-03-26T13:23:38.906Z,16.92
2023-03-26T13:26:22.754Z,17.27
2023-03-26T13:29:00.056Z,17.22
2023-03-26T13:31:35.593Z,17.36
2023-03-26T13:34:18.142Z,17.00
2023-03-26T13:37:01.351Z,17.03
2023-03-26T13:39:41.522Z,17.51
2023-03-26T13:42:37.014Z,17.20
2023-03-26T13:45:18.766Z,17.55
2023-03-26T13:47:51.672Z,17.70
2023-03-26T13:50:26.698Z,17.80
2023-03-26T13:53:00.984Z,17.77
2023-03-26T13:55:36.066Z,17.66
2023-03-26T13:58:16.531Z,17.80
2023-03-26T14:00:59.649Z,17.91
2023-03-26T14:03:38.320Z,18.04
2023-03-26T14:06:17.279Z,18.14
2023-03-26T14:08:53.445Z,18.26
2023-03-26T14:11:33.048Z,18.36
2023-03-26T14:14:10.808Z,18.46
2023-03-26T14:16:48.332Z,18.41
2023-03-26T14:19:56.747Z,18.69
2023-03-26T14:22:37.092Z,18.54
2023-03-26T14:25:33.838Z,18.58
2023-03-26T14:28:33.232Z,18.64
2023-03-26T14:31:19.769Z,18.63
2023-03-26T14:34:08.874Z,18.60
2023-03-26T14:37:15.638Z,18.76
2023-03-26T14:40:31.644Z,18.71
2023-03-26T14:43:23.621Z,18.90
2023-03-26T14:46:22.921Z,19.23
2023-03-26T14:49:27.015Z,19.12
2023-03-26T14:52:04.926Z,19.13
2023-03-26T14:54:40.777Z,19.14
2023-03-26T14:57:54.189Z,19.14
2023-03-26T15:01:18.812Z,19.38
2023-03-26T15:04:52.828Z,19.48
2023-03-26T15:08:16.929Z,19.50
2023-03-26T15:11:24.338Z,19.70
2023-03-26T15:14:29.310Z,19.84
2023-03-26T15:17:41.521Z,20.10
2023-03-26T15:21:05.028Z,20.15
2023-03-26T15:24:21.772Z,20.23
2023-03-26T15:27:39.221Z,20.41
2023-03-26T15:30:52.648Z,20.67
2023-03-26T15:34:07.789Z,20.94
2023-03-26T15:37:26.744Z,21.05
2023-03-26T15:40:41.402Z,21.19
2023-03-26T15:43:15.067Z,21.26
2023-03-26T15:45:48.248Z,21.33
2023-03-26T15:48:47.157Z,20.94
2023-03-26T15:51:32.770Z,21.01
2023-03-26T15:54:30.432Z,20.68
2023-03-26T15:57:22.830Z,20.97
2023-03-26T16:00:15.549Z,20.89
2023-03-26T16:03:00.052Z,21.05
2023-03-26T16:05:56.577Z,21.42
2023-03-26T16:08:38.887Z,21.55
2023-03-26T16:11:13.047Z,22.43
2023-03-26T16:13:43.945Z,23.04
2023-03-26T16:16:50.831Z,23.30
2023-03-26T16:19:57.038Z,23.95
2023-03-26T16:23:03.662Z,23.97
2023-03-26T16:25:35.385Z,24.45
2023-03-26T16:28:35.041Z,24.47
2023-03-26T16:31:38.767Z,24.49
2023-03-26T16:34:28.510Z,24.72
2023-03-26T16:37:00.281Z,24.43
2023-03-26T16:39:44.187Z,24.85
2023-03-26T16:42:39.959Z,25.05
2023-03-26T16:45:23.273Z,24.98
2023-03-26T16:48:04.293Z,25.21
2023-03-26T16:50:46.636Z,25.76
2023-03-26T16:53:38.966Z,25.48
2023-03-26T16:56:18.392Z,25.65
2023-03-26T16:58:59.177Z,25.51
2023-03-26T17:01:45.537Z,25.64
2023-03-26T17:04:21.773Z,26.11
2023-03-26T17:07:14.297Z,26.16
2023-03-26T17:10:01.872Z,26.74
2023-03-26T17:12:43.426Z,26.34
2023-03-26T17:15:36.946Z,27.02
2023-03-26T17:18:34.269Z,26.79
2023-03-26T17:21:10.566Z,27.14
2023-03-26T17:24:15.324Z,27.74
2023-03-26T17:26:57.399Z,28.02
2023-03-26T17:29:34.765Z,28.26
2023-03-26T17:32:12.016Z,28.41
2023-03-26T17:35:04.456Z,28.29
2023-03-26T17:37:50.721Z,28.98
2023-03-26T17:40:55.306Z,28.87
2023-03-26T17:43:50.594Z,29.43
2023-03-26T17:46:33.220Z,29.86
2023-03-26T17:49:16.406Z,30.11
2023-03-26T17:51:55.194Z,30.51
2023-03-26T17:54:32.937Z,30.48
2023-03-26T17:57:09.786Z,30.14
2023-03-26T17:59:43.654Z,30.52
2023-03-26T18:02:18.522Z,30.69
2023-03-26T18:04:56.236Z,30.82
2023-03-26T18:08:34.211Z,30.65
2023-03-26T18:11:47.585Z,30.41
2023-03-26T18:14:59.806Z,30.48
2023-03-26T18:17:41.595Z,30.47
2023-03-26T18:20:25.903Z,30.45
2023-03-26T18:22:59.377Z,30.51
2023-03-26T18:25:34.533Z,30.65
2023-03-26T18:28:05.146Z,30.76
2023-03-26T18:30:47.226Z,30.78
2023-03-26T18:33:19.146Z,31.16
2023-03-26T18:35:57.076Z,31.48
2023-03-26T18:38:36.439Z,31.47
2023-03-26T18:41:17.794Z,31.60
2023-03-26T18:43:48.669Z,32.32
2023-03-26T18:46:22.538Z,31.99
2023-03-26T18:48:56.320Z,32.53
2023-03-26T18:51:31.694Z,32.64
2023-03-26T18:54:08.201Z,32.61
2023-03-26T18:56:43.580Z,32.60
2023-03-26T18:59:32.608Z,32.62
2023-03-26T19:02:06.415Z,33.02
2023-03-26T19:04:39.988Z,32.75
2023-03-26T19:07:19.041Z,33.14
2023-03-26T19:09:56.760Z,33.27
2023-03-26T19:12:43.167Z,33.32
2023-03-26T19:15:16.574Z,33.36
2023-03-26T19:17:52.057Z,33.42
2023-03-26T19:20:26.897Z,33.65
2023-03-26T19:22:59.675Z,33.73
2023-03-26T19:25:36.069Z,33.67
2023-03-26T19:28:08.052Z,34.07
2023-03-26T19:30:43.858Z,34.11
2023-03-26T19:33:19.829Z,34.06
2023-03-26T19:35:58.913Z,34.42
2023-03-26T19:38:39.770Z,34.58
2023-03-26T19:41:24.973Z,34.44
2023-03-26T19:43:58.938Z,34.11
2023-03-26T19:46:31.718Z,34.30
2023-03-26T19:49:03.938Z,34.54
2023-03-26T19:51:38.221Z,34.66
2023-03-26T19:54:17.492Z,34.40
2023-03-26T19:56:47.914Z,34.33
2023-03-26T19:59:27.216Z,34.41
2023-03-26T20:01:58.704Z,34.61
2023-03-26T20:04:32.611Z,34.57
2023-03-26T20:07:03.422Z,34.36
2023-03-26T20:09:34.208Z,34.15
2023-03-26T20:12:07.920Z,34.08
2023-03-26T20:14:38.676Z,34.02
2023-03-26T20:17:15.094Z,34.27
2023-03-26T20:19:46.510Z,34.03
2023-03-26T20:22:20.163Z,34.31
2023-03-26T20:24:52.014Z,33.95
2023-03-26T20:27:23.681Z,34.43
2023-03-26T20:29:57.124Z,34.96
2023-03-26T20:32:27.816Z,34.88
2023-03-26T20:34:58.235Z,34.72
2023-03-26T20:37:28.002Z,34.87
2023-03-26T20:39:57.679Z,34.80
2023-03-26T20:42:27.783Z,35.12
2023-03-26T20:44:56.621Z,35.51
2023-03-26T20:47:34.764Z,35.27
2023-03-26T20:50:03.830Z,35.34
2023-03-26T20:52:32.989Z,35.31
2023-03-26T20:55:02.998Z,35.04
2023-03-26T20:57:33.898Z,35.23
2023-03-26T21:00:08.363Z,35.48
2023-03-26T21:02:37.477Z,35.41
2023-03-26T21:05:09.438Z,35.53
2023-03-26T21:07:38.320Z,35.54
2023-03-26T21:10:09.077Z,35.38
2023-03-26T21:12:46.224Z,35.10
2023-03-26T21:15:23.101Z,35.76
2023-03-26T21:17:54.970Z,36.04
2023-03-26T21:20:28.017Z,35.71
2023-03-26T21:23:05.240Z,35.81
2023-03-26T21:25:42.017Z,35.87
2023-03-26T21:28:39.808Z,35.74
2023-03-26T21:31:15.753Z,35.83
2023-03-26T21:33:44.784Z,35.76
2023-03-26T21:36:14.297Z,35.75
2023-03-26T21:38:44.701Z,35.73
2023-03-26T21:41:26.994Z,35.86
2023-03-26T21:43:56.812Z,35.67
2023-03-26T21:46:26.078Z,35.74
2023-03-26T21:48:55.353Z,35.93
2023-03-26T21:51:24.679Z,35.67
2023-03-26T21:53:53.906Z,35.62
2023-03-26T21:56:41.829Z,36.07
2023-03-26T21:59:23.075Z,35.81
2023-03-26T22:02:02.275Z,35.84
2023-03-26T22:04:40.363Z,35.89
2023-03-26T22:07:15.211Z,35.96
2023-03-26T22:09:44.976Z,35.71
2023-03-26T22:12:14.432Z,35.68
2023-03-26T22:14:44.238Z,35.86
2023-03-26T22:17:12.762Z,35.86
2023-03-26T22:19:41.178Z,35.58
2023-03-26T22:22:10.527Z,35.79
2023-03-26T22:24:39.128Z,35.51
2023-03-26T22:27:08.424Z,35.62
2023-03-26T22:29:36.880Z,35.81
2023-03-26T22:32:08.045Z,35.84
2023-03-26T22:34:36.619Z,35.75
2023-03-26T22:37:05.801Z,35.65
2023-03-26T22:39:34.265Z,35.57
2023-03-26T22:42:03.874Z,35.54
2023-03-26T22:44:32.876Z,35.38
2023-03-26T22:47:01.366Z,35.79
2023-03-26T22:49:31.470Z,35.72
2023-03-26T22:51:59.904Z,35.77
2023-03-26T22:54:28.550Z,35.74
2023-03-26T22:56:57.040Z,35.74
2023-03-26T22:59:25.580Z,35.76
2023-03-26T23:01:54.350Z,35.59
2023-03-26T23:04:30.630Z,35.61
2023-03-26T23:07:01.827Z,35.73
2023-03-26T23:09:30.567Z,35.78
2023-03-26T23:11:59.344Z,35.81
2023-03-26T23:14:29.137Z,35.96
2023-03-26T23:16:57.570Z,35.77
2023-03-26T23:19:26.475Z,35.71
2023-03-26T23:21:54.885Z,35.84
2023-03-26T23:24:26.479Z,35.93
2023-03-26T23:26:55.131Z,35.87
2023-03-26T23:29:23.783Z,35.82
2023-03-26T23:31:54.621Z,35.97
2023-03-26T23:34:23.467Z,35.85
2023-03-26T23:36:52.409Z,35.91
2023-03-26T23:39:20.811Z,35.81
2023-03-26T23:41:50.641Z,36.06
2023-03-26T23:44:19.488Z,36.10
2023-03-26T23:46:48.611Z,35.82
2023-03-26T23:49:17.000Z,36.00
2023-03-26T23:51:45.588Z,36.12
2023-03-26T23:54:13.995Z,36.30
2023-03-26T23:56:42.729Z,36.15
2023-03-26T23:59:12.968Z,36.28
